COA4422 KSBP-KSAN
Flight info
| Callsign | COA4422 |
|---|---|
| Flight time | N/A |
| Altitude | FL250 |
| Route | CREPE3 MQO RZS V25 LAX SHAMU1 |
| Aircraft | B738 |
Departure
| Time | N/A |
|---|---|
| Airport | San Luis County Regional Airport (KSBP) |
Arrival
| Time | 2026-04-25 22:44 |
|---|---|
| Airport | San Diego International Airport (KSAN) |
| Time | Latitude | Longitude | Altitude | Speed | Heading |
|---|---|---|---|---|---|
| 2026-04-25 22:34 | 32.80592 | -116.80306 | 5454 ft | 229 kts | 191° |
| 2026-04-25 22:35 | 32.79090 | -116.80612 | 5341 ft | 212 kts | 191° |
| 2026-04-25 22:35 | 32.77654 | -116.80864 | 5208 ft | 210 kts | 191° |
| 2026-04-25 22:35 | 32.76207 | -116.81123 | 5084 ft | 211 kts | 191° |
| 2026-04-25 22:35 | 32.74803 | -116.81384 | 4999 ft | 195 kts | 191° |
| 2026-04-25 22:36 | 32.73538 | -116.81615 | 4995 ft | 178 kts | 191° |
| 2026-04-25 22:36 | 32.72315 | -116.81819 | 5017 ft | 180 kts | 192° |
| 2026-04-25 22:36 | 32.71093 | -116.82067 | 5007 ft | 180 kts | 199° |
| 2026-04-25 22:36 | 32.70101 | -116.82869 | 5002 ft | 174 kts | 239° |
| 2026-04-25 22:37 | 32.69697 | -116.84215 | 5043 ft | 176 kts | 253° |
| 2026-04-25 22:37 | 32.69335 | -116.85603 | 5005 ft | 174 kts | 252° |
| 2026-04-25 22:37 | 32.68965 | -116.86956 | 4981 ft | 172 kts | 253° |
| 2026-04-25 22:37 | 32.68596 | -116.88318 | 5014 ft | 176 kts | 252° |
| 2026-04-25 22:38 | 32.68225 | -116.89704 | 5015 ft | 176 kts | 253° |
| 2026-04-25 22:38 | 32.67844 | -116.91078 | 4879 ft | 178 kts | 252° |
| 2026-04-25 22:38 | 32.67483 | -116.92463 | 4651 ft | 174 kts | 252° |
| 2026-04-25 22:38 | 32.67120 | -116.93826 | 4420 ft | 171 kts | 252° |
| 2026-04-25 22:39 | 32.66741 | -116.95138 | 4193 ft | 169 kts | 244° |
| 2026-04-25 22:39 | 32.66566 | -116.96479 | 4258 ft | 171 kts | 273° |
| 2026-04-25 22:39 | 32.66815 | -116.97837 | 4605 ft | 170 kts | 282° |
| 2026-04-25 22:39 | 32.67208 | -116.99354 | 4219 ft | 190 kts | 286° |
| 2026-04-25 22:40 | 32.67606 | -117.00699 | 4165 ft | 167 kts | 289° |
| 2026-04-25 22:40 | 32.68024 | -117.02044 | 3913 ft | 182 kts | 289° |
| 2026-04-25 22:40 | 32.68477 | -117.03357 | 3910 ft | 167 kts | 289° |
| 2026-04-25 22:40 | 32.68988 | -117.04708 | 3552 ft | 194 kts | 294° |
| 2026-04-25 22:41 | 32.69532 | -117.06049 | 3125 ft | 170 kts | 286° |
| 2026-04-25 22:41 | 32.69958 | -117.07259 | 2687 ft | 161 kts | 289° |
| 2026-04-25 22:41 | 32.70379 | -117.08463 | 2592 ft | 163 kts | 289° |
| 2026-04-25 22:41 | 32.70772 | -117.09717 | 2630 ft | 163 kts | 290° |
| 2026-04-25 22:42 | 32.71150 | -117.11013 | 2326 ft | 165 kts | 287° |
| 2026-04-25 22:42 | 32.71486 | -117.12292 | 1906 ft | 157 kts | 284° |
| 2026-04-25 22:42 | 32.71817 | -117.13528 | 1541 ft | 159 kts | 287° |
| 2026-04-25 22:42 | 32.72143 | -117.14719 | 1070 ft | 141 kts | 281° |
| 2026-04-25 22:43 | 32.72498 | -117.15821 | 622 ft | 142 kts | 291° |
| 2026-04-25 22:43 | 32.72851 | -117.16889 | 339 ft | 143 kts | 286° |
| 2026-04-25 22:43 | 32.73139 | -117.18020 | 80 ft | 143 kts | 282° |
| 2026-04-25 22:43 | 32.73396 | -117.19131 | 28 ft | 129 kts | 283° |
| 2026-04-25 22:44 | 32.73577 | -117.19853 | 27 ft | 54 kts | 278° |
| 2026-04-25 22:44 | 32.73597 | -117.20190 | 27 ft | 28 kts | 208° |
| 2026-04-25 22:44 | 32.73538 | -117.20139 | 27 ft | 0 kts | 105° |